sensor_id;sensor_type;location;lat;lon;timestamp;P1;P2;P0
65556;PMS3003;52200;53.490;14.376;2022-11-11T00:00:47;13.50;5.75;3.00
65556;PMS3003;52200;53.490;14.376;2022-11-11T00:03:12;11.25;6.00;3.25
65556;PMS3003;52200;53.490;14.376;2022-11-11T00:05:39;11.00;5.80;3.00
65556;PMS3003;52200;53.490;14.376;2022-11-11T00:08:05;11.75;6.50;2.25
65556;PMS3003;52200;53.490;14.376;2022-11-11T00:10:30;9.50;4.75;2.00
65556;PMS3003;52200;53.490;14.376;2022-11-11T00:12:59;11.00;7.50;3.00
65556;PMS3003;52200;53.490;14.376;2022-11-11T00:15:27;10.00;5.00;2.20
65556;PMS3003;52200;53.490;14.376;2022-11-11T00:17:53;13.20;7.20;3.60
65556;PMS3003;52200;53.490;14.376;2022-11-11T00:20:38;13.40;7.80;4.00
65556;PMS3003;52200;53.490;14.376;2022-11-11T00:23:23;13.60;6.00;3.00
65556;PMS3003;52200;53.490;14.376;2022-11-11T00:26:09;13.20;6.60;3.20
65556;PMS3003;52200;53.490;14.376;2022-11-11T00:28:37;11.40;6.60;4.00
65556;PMS3003;52200;53.490;14.376;2022-11-11T00:31:06;9.75;6.00;2.00
65556;PMS3003;52200;53.490;14.376;2022-11-11T00:33:33;14.80;6.80;3.00
65556;PMS3003;52200;53.490;14.376;2022-11-11T00:35:59;17.25;9.50;4.00
65556;PMS3003;52200;53.490;14.376;2022-11-11T00:38:24;14.75;6.75;3.25
65556;PMS3003;52200;53.490;14.376;2022-11-11T00:41:09;10.00;5.40;3.00
65556;PMS3003;52200;53.490;14.376;2022-11-11T00:43:36;10.00;7.00;3.00
65556;PMS3003;52200;53.490;14.376;2022-11-11T00:46:02;14.00;6.80;4.00
65556;PMS3003;52200;53.490;14.376;2022-11-11T00:48:46;9.40;5.00;3.00
65556;PMS3003;52200;53.490;14.376;2022-11-11T00:51:30;9.20;5.80;3.00
65556;PMS3003;52200;53.490;14.376;2022-11-11T00:53:56;15.75;7.25;3.75
65556;PMS3003;52200;53.490;14.376;2022-11-11T00:56:21;12.00;7.25;3.75
65556;PMS3003;52200;53.490;14.376;2022-11-11T00:58:47;13.80;8.00;3.00
65556;PMS3003;52200;53.490;14.376;2022-11-11T01:01:13;13.80;8.00;3.00
65556;PMS3003;52200;53.490;14.376;2022-11-11T01:03:39;9.00;4.50;2.50
65556;PMS3003;52200;53.490;14.376;2022-11-11T01:06:05;10.25;5.25;2.75
65556;PMS3003;52200;53.490;14.376;2022-11-11T01:08:31;8.60;5.60;2.80
65556;PMS3003;52200;53.490;14.376;2022-11-11T01:10:57;12.80;5.00;2.80
65556;PMS3003;52200;53.490;14.376;2022-11-11T01:15:51;12.60;5.00;2.00
65556;PMS3003;52200;53.490;14.376;2022-11-11T01:18:21;14.00;6.00;3.00
65556;PMS3003;52200;53.490;14.376;2022-11-11T01:20:58;10.80;6.00;2.80
65556;PMS3003;52200;53.490;14.376;2022-11-11T01:23:25;9.20;4.40;2.40
65556;PMS3003;52200;53.490;14.376;2022-11-11T01:25:51;8.20;5.00;2.00
65556;PMS3003;52200;53.490;14.376;2022-11-11T01:28:17;10.50;6.00;2.00
65556;PMS3003;52200;53.490;14.376;2022-11-11T01:30:43;10.25;6.00;2.00
65556;PMS3003;52200;53.490;14.376;2022-11-11T01:33:09;8.25;5.00;2.25
65556;PMS3003;52200;53.490;14.376;2022-11-11T01:35:39;11.40;4.80;2.00
65556;PMS3003;52200;53.490;14.376;2022-11-11T01:38:06;12.80;6.80;3.00
65556;PMS3003;52200;53.490;14.376;2022-11-11T01:40:42;9.20;5.80;2.40
65556;PMS3003;52200;53.490;14.376;2022-11-11T01:46:27;10.50;5.25;2.00
65556;PMS3003;52200;53.490;14.376;2022-11-11T01:48:36;9.60;4.20;2.20
65556;PMS3003;52200;53.490;14.376;2022-11-11T01:51:36;12.00;4.00;2.40
65556;PMS3003;52200;53.490;14.376;2022-11-11T01:54:17;12.60;3.80;2.00
65556;PMS3003;52200;53.490;14.376;2022-11-11T01:56:45;10.40;4.60;2.80
65556;PMS3003;52200;53.490;14.376;2022-11-11T01:59:14;7.20;3.80;2.00
65556;PMS3003;52200;53.490;14.376;2022-11-11T02:01:42;12.20;5.40;2.00
65556;PMS3003;52200;53.490;14.376;2022-11-11T02:04:09;10.20;6.00;2.20
65556;PMS3003;52200;53.490;14.376;2022-11-11T02:06:55;9.00;5.00;2.00
65556;PMS3003;52200;53.490;14.376;2022-11-11T02:09:24;10.00;5.00;2.00
65556;PMS3003;52200;53.490;14.376;2022-11-11T02:11:50;7.40;4.00;2.00
65556;PMS3003;52200;53.490;14.376;2022-11-11T02:14:47;7.80;4.20;2.00
65556;PMS3003;52200;53.490;14.376;2022-11-11T02:17:15;8.60;4.00;2.00
65556;PMS3003;52200;53.490;14.376;2022-11-11T02:22:16;9.00;4.60;2.00
65556;PMS3003;52200;53.490;14.376;2022-11-11T02:25:06;8.60;4.00;2.00
65556;PMS3003;52200;53.490;14.376;2022-11-11T02:27:34;10.00;5.00;2.00
65556;PMS3003;52200;53.490;14.376;2022-11-11T02:30:04;9.60;5.80;2.00
65556;PMS3003;52200;53.490;14.376;2022-11-11T02:32:30;11.60;4.80;1.80
65556;PMS3003;52200;53.490;14.376;2022-11-11T02:34:56;11.50;5.75;2.00
65556;PMS3003;52200;53.490;14.376;2022-11-11T02:37:23;10.00;4.00;2.00
65556;PMS3003;52200;53.490;14.376;2022-11-11T02:39:50;8.00;4.00;2.00
65556;PMS3003;52200;53.490;14.376;2022-11-11T02:42:21;12.20;4.60;2.00
65556;PMS3003;52200;53.490;14.376;2022-11-11T02:44:48;12.60;5.40;2.00
65556;PMS3003;52200;53.490;14.376;2022-11-11T02:47:14;12.75;4.75;2.00
65556;PMS3003;52200;53.490;14.376;2022-11-11T02:49:40;8.60;4.40;3.00
65556;PMS3003;52200;53.490;14.376;2022-11-11T02:52:05;12.50;4.50;2.00
65556;PMS3003;52200;53.490;14.376;2022-11-11T02:54:31;11.25;4.00;2.00
65556;PMS3003;52200;53.490;14.376;2022-11-11T02:56:56;8.75;4.00;2.00
65556;PMS3003;52200;53.490;14.376;2022-11-11T02:59:31;11.80;5.40;3.00
65556;PMS3003;52200;53.490;14.376;2022-11-11T03:01:57;9.00;4.80;1.60
65556;PMS3003;52200;53.490;14.376;2022-11-11T03:04:23;8.00;5.00;2.00
65556;PMS3003;52200;53.490;14.376;2022-11-11T03:06:48;7.00;3.25;2.00
65556;PMS3003;52200;53.490;14.376;2022-11-11T03:09:14;10.75;5.00;2.50
65556;PMS3003;52200;53.490;14.376;2022-11-11T03:11:39;11.00;5.00;2.00
65556;PMS3003;52200;53.490;14.376;2022-11-11T03:14:05;11.40;6.00;3.00
65556;PMS3003;52200;53.490;14.376;2022-11-11T03:16:32;7.20;4.00;2.00
65556;PMS3003;52200;53.490;14.376;2022-11-11T03:19:16;9.20;3.40;1.60
65556;PMS3003;52200;53.490;14.376;2022-11-11T03:21:42;10.75;3.50;2.00
65556;PMS3003;52200;53.490;14.376;2022-11-11T03:24:07;8.00;3.25;1.00
65556;PMS3003;52200;53.490;14.376;2022-11-11T03:26:33;10.75;6.00;3.00
65556;PMS3003;52200;53.490;14.376;2022-11-11T03:28:58;10.75;4.50;2.00
65556;PMS3003;52200;53.490;14.376;2022-11-11T03:31:23;10.75;6.00;3.00
65556;PMS3003;52200;53.490;14.376;2022-11-11T03:33:49;7.75;4.25;2.00
65556;PMS3003;52200;53.490;14.376;2022-11-11T03:36:14;13.25;5.00;2.00
65556;PMS3003;52200;53.490;14.376;2022-11-11T03:38:40;11.75;4.00;2.00
65556;PMS3003;52200;53.490;14.376;2022-11-11T03:41:05;9.00;3.00;2.00
65556;PMS3003;52200;53.490;14.376;2022-11-11T03:43:32;7.00;3.75;2.00
65556;PMS3003;52200;53.490;14.376;2022-11-11T03:46:00;6.80;3.40;2.00
65556;PMS3003;52200;53.490;14.376;2022-11-11T03:48:30;8.80;5.20;2.20
65556;PMS3003;52200;53.490;14.376;2022-11-11T03:50:57;9.20;5.00;2.40
65556;PMS3003;52200;53.490;14.376;2022-11-11T03:53:23;13.25;5.00;2.00
65556;PMS3003;52200;53.490;14.376;2022-11-11T03:55:48;11.00;5.50;3.00
65556;PMS3003;52200;53.490;14.376;2022-11-11T03:58:15;12.60;5.60;2.40
65556;PMS3003;52200;53.490;14.376;2022-11-11T04:00:41;12.00;4.60;2.40
65556;PMS3003;52200;53.490;14.376;2022-11-11T04:03:14;9.40;3.40;2.00
65556;PMS3003;52200;53.490;14.376;2022-11-11T04:05:58;8.80;4.60;2.00
65556;PMS3003;52200;53.490;14.376;2022-11-11T04:08:43;9.80;4.80;2.00
65556;PMS3003;52200;53.490;14.376;2022-11-11T04:11:28;7.20;3.40;1.80
65556;PMS3003;52200;53.490;14.376;2022-11-11T04:13:56;10.20;3.20;2.00
65556;PMS3003;52200;53.490;14.376;2022-11-11T04:16:44;10.20;5.20;2.60
65556;PMS3003;52200;53.490;14.376;2022-11-11T04:19:10;11.25;4.75;2.25
65556;PMS3003;52200;53.490;14.376;2022-11-11T04:22:01;10.60;5.40;2.80
65556;PMS3003;52200;53.490;14.376;2022-11-11T04:24:27;8.50;5.00;2.50
65556;PMS3003;52200;53.490;14.376;2022-11-11T04:27:12;9.60;4.00;1.80
65556;PMS3003;52200;53.490;14.376;2022-11-11T04:29:40;9.60;3.40;2.00
65556;PMS3003;52200;53.490;14.376;2022-11-11T04:32:07;10.40;4.40;2.00
65556;PMS3003;52200;53.490;14.376;2022-11-11T04:34:54;11.80;4.60;1.60
65556;PMS3003;52200;53.490;14.376;2022-11-11T04:37:21;12.00;6.00;2.00
65556;PMS3003;52200;53.490;14.376;2022-11-11T04:39:47;12.40;6.60;2.00
65556;PMS3003;52200;53.490;14.376;2022-11-11T04:42:32;9.60;5.40;2.80
65556;PMS3003;52200;53.490;14.376;2022-11-11T04:44:58;12.00;5.80;3.40
65556;PMS3003;52200;53.490;14.376;2022-11-11T04:48:02;10.40;5.00;2.00
65556;PMS3003;52200;53.490;14.376;2022-11-11T04:50:36;11.80;5.40;2.00
65556;PMS3003;52200;53.490;14.376;2022-11-11T04:53:03;13.40;7.00;3.00
65556;PMS3003;52200;53.490;14.376;2022-11-11T04:55:34;10.00;4.80;2.40
65556;PMS3003;52200;53.490;14.376;2022-11-11T04:58:19;7.40;3.40;2.20
65556;PMS3003;52200;53.490;14.376;2022-11-11T05:00:46;10.60;4.60;2.00
65556;PMS3003;52200;53.490;14.376;2022-11-11T05:03:12;10.25;5.00;2.00
65556;PMS3003;52200;53.490;14.376;2022-11-11T05:05:47;13.00;6.60;3.00
65556;PMS3003;52200;53.490;14.376;2022-11-11T05:08:32;10.60;5.20;2.00
65556;PMS3003;52200;53.490;14.376;2022-11-11T05:11:19;11.80;6.00;2.00
65556;PMS3003;52200;53.490;14.376;2022-11-11T05:13:46;9.80;3.40;2.00
65556;PMS3003;52200;53.490;14.376;2022-11-11T05:16:31;11.00;5.00;3.00
65556;PMS3003;52200;53.490;14.376;2022-11-11T05:19:19;11.80;5.00;2.80
65556;PMS3003;52200;53.490;14.376;2022-11-11T05:22:08;11.80;6.40;3.00
65556;PMS3003;52200;53.490;14.376;2022-11-11T05:24:40;11.00;6.40;3.00
65556;PMS3003;52200;53.490;14.376;2022-11-11T05:27:24;11.00;7.20;2.80
65556;PMS3003;52200;53.490;14.376;2022-11-11T05:29:50;10.60;5.60;3.00
65556;PMS3003;52200;53.490;14.376;2022-11-11T05:32:17;11.80;6.40;3.00
65556;PMS3003;52200;53.490;14.376;2022-11-11T05:34:46;12.00;7.00;3.40
65556;PMS3003;52200;53.490;14.376;2022-11-11T05:37:12;14.60;7.40;2.80
65556;PMS3003;52200;53.490;14.376;2022-11-11T05:39:39;15.60;5.80;2.00
65556;PMS3003;52200;53.490;14.376;2022-11-11T05:42:04;10.25;5.25;3.00
65556;PMS3003;52200;53.490;14.376;2022-11-11T05:44:30;11.00;5.00;3.00
65556;PMS3003;52200;53.490;14.376;2022-11-11T05:46:56;11.25;6.75;3.00
65556;PMS3003;52200;53.490;14.376;2022-11-11T05:49:22;10.75;5.25;3.00
65556;PMS3003;52200;53.490;14.376;2022-11-11T05:51:49;13.40;7.00;3.60
65556;PMS3003;52200;53.490;14.376;2022-11-11T05:54:16;13.80;6.20;3.80
65556;PMS3003;52200;53.490;14.376;2022-11-11T05:56:42;10.80;5.60;2.00
65556;PMS3003;52200;53.490;14.376;2022-11-11T05:59:08;13.40;7.60;3.00
65556;PMS3003;52200;53.490;14.376;2022-11-11T06:01:34;9.60;5.60;3.00
65556;PMS3003;52200;53.490;14.376;2022-11-11T06:04:00;11.00;5.60;3.00
65556;PMS3003;52200;53.490;14.376;2022-11-11T06:06:26;11.00;6.25;3.00
65556;PMS3003;52200;53.490;14.376;2022-11-11T06:08:52;18.20;8.80;3.20
65556;PMS3003;52200;53.490;14.376;2022-11-11T06:11:18;11.00;6.75;3.00
65556;PMS3003;52200;53.490;14.376;2022-11-11T06:13:43;10.60;6.60;3.40
65556;PMS3003;52200;53.490;14.376;2022-11-11T06:16:09;15.25;6.75;3.00
65556;PMS3003;52200;53.490;14.376;2022-11-11T06:18:34;14.50;7.25;3.75
65556;PMS3003;52200;53.490;14.376;2022-11-11T06:21:00;12.75;6.50;4.00
65556;PMS3003;52200;53.490;14.376;2022-11-11T06:23:26;13.25;7.00;4.00
65556;PMS3003;52200;53.490;14.376;2022-11-11T06:25:53;14.60;7.40;3.00
65556;PMS3003;52200;53.490;14.376;2022-11-11T06:28:41;12.20;7.80;4.00
65556;PMS3003;52200;53.490;14.376;2022-11-11T06:31:08;15.60;9.20;4.40
65556;PMS3003;52200;53.490;14.376;2022-11-11T06:33:35;14.60;7.40;3.80
65556;PMS3003;52200;53.490;14.376;2022-11-11T06:36:02;13.00;8.20;4.00
65556;PMS3003;52200;53.490;14.376;2022-11-11T06:38:29;12.60;7.80;3.80
65556;PMS3003;52200;53.490;14.376;2022-11-11T06:40:55;12.20;6.00;3.00
65556;PMS3003;52200;53.490;14.376;2022-11-11T06:43:21;12.60;8.20;4.00
65556;PMS3003;52200;53.490;14.376;2022-11-11T06:45:50;11.75;7.25;4.00
65556;PMS3003;52200;53.490;14.376;2022-11-11T06:48:17;14.80;9.60;4.00
65556;PMS3003;52200;53.490;14.376;2022-11-11T06:50:44;12.60;8.20;3.00
65556;PMS3003;52200;53.490;14.376;2022-11-11T06:53:13;12.50;6.25;3.00
65556;PMS3003;52200;53.490;14.376;2022-11-11T06:55:40;11.40;5.40;3.60
65556;PMS3003;52200;53.490;14.376;2022-11-11T06:58:10;13.00;8.00;3.50
65556;PMS3003;52200;53.490;14.376;2022-11-11T07:00:38;12.40;7.40;4.00
65556;PMS3003;52200;53.490;14.376;2022-11-11T07:03:05;12.40;6.60;4.00
65556;PMS3003;52200;53.490;14.376;2022-11-11T07:05:32;14.80;10.40;4.00
65556;PMS3003;52200;53.490;14.376;2022-11-11T07:08:02;13.40;8.00;3.00
65556;PMS3003;52200;53.490;14.376;2022-11-11T07:10:32;12.60;6.60;3.40
65556;PMS3003;52200;53.490;14.376;2022-11-11T07:13:00;11.40;6.80;3.80
65556;PMS3003;52200;53.490;14.376;2022-11-11T07:15:26;11.00;6.00;4.00
65556;PMS3003;52200;53.490;14.376;2022-11-11T07:17:52;13.80;9.40;4.20
65556;PMS3003;52200;53.490;14.376;2022-11-11T07:20:17;12.50;6.00;3.00
65556;PMS3003;52200;53.490;14.376;2022-11-11T07:22:43;13.00;9.40;4.60
65556;PMS3003;52200;53.490;14.376;2022-11-11T07:25:08;12.00;8.50;3.75
65556;PMS3003;52200;53.490;14.376;2022-11-11T07:27:37;14.00;7.00;3.00
65556;PMS3003;52200;53.490;14.376;2022-11-11T07:30:04;12.00;7.20;4.00
65556;PMS3003;52200;53.490;14.376;2022-11-11T07:32:30;12.80;6.80;3.00
65556;PMS3003;52200;53.490;14.376;2022-11-11T07:34:56;18.25;12.25;4.00
65556;PMS3003;52200;53.490;14.376;2022-11-11T07:37:21;12.00;7.75;4.00
65556;PMS3003;52200;53.490;14.376;2022-11-11T07:39:47;18.00;10.25;5.00
65556;PMS3003;52200;53.490;14.376;2022-11-11T07:42:12;13.50;9.50;4.00
65556;PMS3003;52200;53.490;14.376;2022-11-11T07:44:39;14.00;9.80;5.80
65556;PMS3003;52200;53.490;14.376;2022-11-11T07:47:05;15.20;8.80;4.80
65556;PMS3003;52200;53.490;14.376;2022-11-11T07:49:31;13.75;9.50;5.00
65556;PMS3003;52200;53.490;14.376;2022-11-11T07:51:56;15.75;11.75;5.00
65556;PMS3003;52200;53.490;14.376;2022-11-11T07:54:22;14.25;8.00;4.25
65556;PMS3003;52200;53.490;14.376;2022-11-11T07:56:47;16.25;10.25;5.00
65556;PMS3003;52200;53.490;14.376;2022-11-11T07:59:13;16.25;10.25;5.00
65556;PMS3003;52200;53.490;14.376;2022-11-11T08:01:38;15.75;8.25;4.00
65556;PMS3003;52200;53.490;14.376;2022-11-11T08:04:03;13.50;10.50;4.50
65556;PMS3003;52200;53.490;14.376;2022-11-11T08:06:29;15.00;10.00;4.00
65556;PMS3003;52200;53.490;14.376;2022-11-11T08:08:54;13.75;7.25;4.00
65556;PMS3003;52200;53.490;14.376;2022-11-11T08:11:20;12.50;7.50;4.00
65556;PMS3003;52200;53.490;14.376;2022-11-11T08:14:05;12.60;8.60;5.00
65556;PMS3003;52200;53.490;14.376;2022-11-11T08:16:31;14.00;10.50;4.00
65556;PMS3003;52200;53.490;14.376;2022-11-11T08:18:56;13.25;9.75;5.00
65556;PMS3003;52200;53.490;14.376;2022-11-11T08:21:22;12.50;7.00;3.75
65556;PMS3003;52200;53.490;14.376;2022-11-11T08:23:48;15.80;8.80;4.60
65556;PMS3003;52200;53.490;14.376;2022-11-11T08:26:15;12.80;8.40;4.40
65556;PMS3003;52200;53.490;14.376;2022-11-11T08:28:42;12.40;6.20;3.40
65556;PMS3003;52200;53.490;14.376;2022-11-11T08:31:07;12.75;8.75;3.75
65556;PMS3003;52200;53.490;14.376;2022-11-11T08:33:34;13.40;8.80;4.00
65556;PMS3003;52200;53.490;14.376;2022-11-11T08:35:59;13.75;8.75;4.50
65556;PMS3003;52200;53.490;14.376;2022-11-11T08:38:26;12.80;8.00;3.00
65556;PMS3003;52200;53.490;14.376;2022-11-11T08:40:52;11.20;6.80;3.00
65556;PMS3003;52200;53.490;14.376;2022-11-11T08:43:18;13.20;7.00;3.60
65556;PMS3003;52200;53.490;14.376;2022-11-11T08:45:44;12.00;7.00;3.00
65556;PMS3003;52200;53.490;14.376;2022-11-11T08:48:10;11.75;5.75;2.75
65556;PMS3003;52200;53.490;14.376;2022-11-11T08:50:36;13.20;9.60;3.60
65556;PMS3003;52200;53.490;14.376;2022-11-11T08:53:04;12.80;6.80;3.20
65556;PMS3003;52200;53.490;14.376;2022-11-11T08:55:31;13.20;8.20;3.20
65556;PMS3003;52200;53.490;14.376;2022-11-11T08:57:58;11.00;6.80;4.00
65556;PMS3003;52200;53.490;14.376;2022-11-11T09:00:25;13.20;7.20;4.00
65556;PMS3003;52200;53.490;14.376;2022-11-11T09:02:50;15.50;7.00;3.00
65556;PMS3003;52200;53.490;14.376;2022-11-11T09:05:17;11.60;7.00;4.00
65556;PMS3003;52200;53.490;14.376;2022-11-11T09:07:42;12.40;6.00;2.80
65556;PMS3003;52200;53.490;14.376;2022-11-11T09:10:08;13.50;7.25;4.00
65556;PMS3003;52200;53.490;14.376;2022-11-11T09:12:34;12.00;6.60;3.00
65556;PMS3003;52200;53.490;14.376;2022-11-11T09:14:59;14.25;10.50;4.50
65556;PMS3003;52200;53.490;14.376;2022-11-11T09:17:25;14.00;6.50;3.00
65556;PMS3003;52200;53.490;14.376;2022-11-11T09:19:52;15.60;10.40;5.00
65556;PMS3003;52200;53.490;14.376;2022-11-11T09:22:17;11.75;6.00;4.00
65556;PMS3003;52200;53.490;14.376;2022-11-11T09:24:43;15.75;11.25;5.00
65556;PMS3003;52200;53.490;14.376;2022-11-11T09:27:11;15.25;10.50;5.00
65556;PMS3003;52200;53.490;14.376;2022-11-11T09:29:36;15.00;10.00;6.00
65556;PMS3003;52200;53.490;14.376;2022-11-11T09:32:02;14.75;9.50;4.00
65556;PMS3003;52200;53.490;14.376;2022-11-11T09:34:27;17.00;10.50;5.00
65556;PMS3003;52200;53.490;14.376;2022-11-11T09:36:53;15.25;8.25;5.00
65556;PMS3003;52200;53.490;14.376;2022-11-11T09:39:18;13.50;8.25;4.00
65556;PMS3003;52200;53.490;14.376;2022-11-11T09:47:07;15.00;11.40;6.00
65556;PMS3003;52200;53.490;14.376;2022-11-11T09:55:41;13.80;10.20;5.20
65556;PMS3003;52200;53.490;14.376;2022-11-11T09:58:17;16.40;12.00;5.80
65556;PMS3003;52200;53.490;14.376;2022-11-11T10:00:57;16.20;9.20;4.00
65556;PMS3003;52200;53.490;14.376;2022-11-11T10:03:29;16.60;9.80;4.20
65556;PMS3003;52200;53.490;14.376;2022-11-11T10:06:43;15.60;10.40;5.00
65556;PMS3003;52200;53.490;14.376;2022-11-11T10:08:58;16.00;11.80;6.00
65556;PMS3003;52200;53.490;14.376;2022-11-11T10:14:17;21.80;13.40;7.40
65556;PMS3003;52200;53.490;14.376;2022-11-11T10:21:59;19.60;14.80;8.20
65556;PMS3003;52200;53.490;14.376;2022-11-11T10:24:40;16.60;12.60;6.40
65556;PMS3003;52200;53.490;14.376;2022-11-11T10:27:13;14.80;11.60;5.40
65556;PMS3003;52200;53.490;14.376;2022-11-11T10:29:43;15.40;10.20;6.00
65556;PMS3003;52200;53.490;14.376;2022-11-11T10:32:16;15.00;9.20;4.40
65556;PMS3003;52200;53.490;14.376;2022-11-11T10:34:45;15.20;7.00;4.40
65556;PMS3003;52200;53.490;14.376;2022-11-11T10:37:57;17.80;9.00;5.40
65556;PMS3003;52200;53.490;14.376;2022-11-11T10:42:46;14.40;8.60;5.00
65556;PMS3003;52200;53.490;14.376;2022-11-11T10:48:16;22.40;15.00;6.80
65556;PMS3003;52200;53.490;14.376;2022-11-11T10:50:50;14.60;10.00;5.60
65556;PMS3003;52200;53.490;14.376;2022-11-11T11:01:16;13.80;10.40;5.00
65556;PMS3003;52200;53.490;14.376;2022-11-11T11:03:54;14.80;9.80;5.00
65556;PMS3003;52200;53.490;14.376;2022-11-11T11:06:25;15.80;8.40;5.20
65556;PMS3003;52200;53.490;14.376;2022-11-11T11:08:54;14.00;8.00;5.00
65556;PMS3003;52200;53.490;14.376;2022-11-11T11:12:09;11.80;7.40;4.00
65556;PMS3003;52200;53.490;14.376;2022-11-11T11:14:30;17.00;10.40;5.80
65556;PMS3003;52200;53.490;14.376;2022-11-11T11:16:59;14.00;7.80;5.00
65556;PMS3003;52200;53.490;14.376;2022-11-11T11:19:32;14.40;10.20;5.00
65556;PMS3003;52200;53.490;14.376;2022-11-11T11:21:59;15.25;10.50;5.00
65556;PMS3003;52200;53.490;14.376;2022-11-11T11:24:27;15.40;8.80;5.00
65556;PMS3003;52200;53.490;14.376;2022-11-11T11:26:58;14.20;9.40;5.00
65556;PMS3003;52200;53.490;14.376;2022-11-11T11:29:26;15.20;8.40;3.40
65556;PMS3003;52200;53.490;14.376;2022-11-11T11:32:03;17.00;10.40;6.00
65556;PMS3003;52200;53.490;14.376;2022-11-11T11:35:06;14.80;10.00;4.80
65556;PMS3003;52200;53.490;14.376;2022-11-11T11:37:33;17.00;12.50;6.00
65556;PMS3003;52200;53.490;14.376;2022-11-11T11:40:13;16.80;11.00;5.20
65556;PMS3003;52200;53.490;14.376;2022-11-11T11:42:39;11.40;7.20;4.00
65556;PMS3003;52200;53.490;14.376;2022-11-11T11:56:55;15.00;11.20;5.00
65556;PMS3003;52200;53.490;14.376;2022-11-11T12:02:09;12.60;7.40;4.60
65556;PMS3003;52200;53.490;14.376;2022-11-11T12:07:33;14.40;10.00;4.00
65556;PMS3003;52200;53.490;14.376;2022-11-11T12:10:19;16.40;10.60;5.20
65556;PMS3003;52200;53.490;14.376;2022-11-11T12:13:04;15.00;8.60;4.20
65556;PMS3003;52200;53.490;14.376;2022-11-11T12:18:45;14.00;10.80;6.00
65556;PMS3003;52200;53.490;14.376;2022-11-11T12:21:27;16.20;9.60;5.20
65556;PMS3003;52200;53.490;14.376;2022-11-11T12:30:03;17.80;11.40;7.00
65556;PMS3003;52200;53.490;14.376;2022-11-11T12:32:40;17.00;13.00;7.00
65556;PMS3003;52200;53.490;14.376;2022-11-11T12:38:13;17.00;11.00;6.60
65556;PMS3003;52200;53.490;14.376;2022-11-11T12:40:56;20.00;12.40;6.00
65556;PMS3003;52200;53.490;14.376;2022-11-11T12:43:54;19.20;13.80;7.80
65556;PMS3003;52200;53.490;14.376;2022-11-11T12:46:39;17.00;13.00;7.00
65556;PMS3003;52200;53.490;14.376;2022-11-11T12:57:21;14.75;7.75;4.00
65556;PMS3003;52200;53.490;14.376;2022-11-11T13:03:14;11.00;6.40;3.80
65556;PMS3003;52200;53.490;14.376;2022-11-11T13:13:56;16.60;12.60;6.00
65556;PMS3003;52200;53.490;14.376;2022-11-11T13:16:39;14.00;9.80;6.00
65556;PMS3003;52200;53.490;14.376;2022-11-11T13:22:06;17.00;12.60;6.40
65556;PMS3003;52200;53.490;14.376;2022-11-11T13:24:39;18.80;12.60;6.60
65556;PMS3003;52200;53.490;14.376;2022-11-11T13:30:02;15.00;10.00;6.00
65556;PMS3003;52200;53.490;14.376;2022-11-11T13:32:49;18.40;13.40;6.80
65556;PMS3003;52200;53.490;14.376;2022-11-11T13:37:58;16.60;12.20;6.00
65556;PMS3003;52200;53.490;14.376;2022-11-11T13:40:35;34.80;27.40;16.60
65556;PMS3003;52200;53.490;14.376;2022-11-11T13:43:04;27.20;18.80;11.20
65556;PMS3003;52200;53.490;14.376;2022-11-11T13:45:40;27.80;20.60;12.20
65556;PMS3003;52200;53.490;14.376;2022-11-11T13:48:18;17.00;13.60;8.40
65556;PMS3003;52200;53.490;14.376;2022-11-11T13:50:50;16.60;12.40;7.00
65556;PMS3003;52200;53.490;14.376;2022-11-11T13:53:29;14.25;9.75;5.00
65556;PMS3003;52200;53.490;14.376;2022-11-11T13:56:00;16.60;12.00;6.00
65556;PMS3003;52200;53.490;14.376;2022-11-11T14:00:59;16.40;11.40;6.00
65556;PMS3003;52200;53.490;14.376;2022-11-11T14:03:34;17.00;12.20;7.60
65556;PMS3003;52200;53.490;14.376;2022-11-11T14:08:52;19.00;13.60;7.00
65556;PMS3003;52200;53.490;14.376;2022-11-11T14:13:53;16.00;11.80;6.00
65556;PMS3003;52200;53.490;14.376;2022-11-11T14:21:46;20.60;15.00;11.00
65556;PMS3003;52200;53.490;14.376;2022-11-11T14:29:45;20.20;13.60;7.40
65556;PMS3003;52200;53.490;14.376;2022-11-11T14:32:35;16.60;12.40;7.00
65556;PMS3003;52200;53.490;14.376;2022-11-11T14:37:42;16.60;12.60;8.00
65556;PMS3003;52200;53.490;14.376;2022-11-11T14:40:35;22.80;15.00;10.80
65556;PMS3003;52200;53.490;14.376;2022-11-11T14:43:32;19.25;15.25;8.75
65556;PMS3003;52200;53.490;14.376;2022-11-11T14:46:03;19.80;13.60;7.00
65556;PMS3003;52200;53.490;14.376;2022-11-11T14:54:16;20.60;16.40;8.60
65556;PMS3003;52200;53.490;14.376;2022-11-11T14:56:52;17.20;13.80;7.00
65556;PMS3003;52200;53.490;14.376;2022-11-11T14:59:22;18.80;13.80;8.00
65556;PMS3003;52200;53.490;14.376;2022-11-11T15:01:54;16.00;12.80;7.40
65556;PMS3003;52200;53.490;14.376;2022-11-11T15:04:23;21.60;13.80;9.00
65556;PMS3003;52200;53.490;14.376;2022-11-11T15:07:00;16.20;12.00;6.40
65556;PMS3003;52200;53.490;14.376;2022-11-11T15:14:58;21.20;15.00;8.20
65556;PMS3003;52200;53.490;14.376;2022-11-11T15:17:34;18.80;13.40;7.20
65556;PMS3003;52200;53.490;14.376;2022-11-11T15:23:24;20.00;13.40;6.00
65556;PMS3003;52200;53.490;14.376;2022-11-11T15:39:37;16.60;13.20;8.00
65556;PMS3003;52200;53.490;14.376;2022-11-11T15:42:51;20.60;14.20;8.00
65556;PMS3003;52200;53.490;14.376;2022-11-11T15:45:13;21.20;15.00;8.00
65556;PMS3003;52200;53.490;14.376;2022-11-11T15:47:46;20.00;15.40;8.80
65556;PMS3003;52200;53.490;14.376;2022-11-11T15:50:32;22.20;16.40;9.40
65556;PMS3003;52200;53.490;14.376;2022-11-11T15:53:00;18.00;13.20;8.60
65556;PMS3003;52200;53.490;14.376;2022-11-11T15:55:27;20.60;15.40;9.80
65556;PMS3003;52200;53.490;14.376;2022-11-11T15:58:11;22.00;18.20;11.00
65556;PMS3003;52200;53.490;14.376;2022-11-11T16:00:40;21.60;15.40;9.40
65556;PMS3003;52200;53.490;14.376;2022-11-11T16:03:30;22.60;17.40;8.60
65556;PMS3003;52200;53.490;14.376;2022-11-11T16:06:13;22.20;17.20;11.00
65556;PMS3003;52200;53.490;14.376;2022-11-11T16:08:40;20.60;14.80;9.00
65556;PMS3003;52200;53.490;14.376;2022-11-11T16:11:09;23.20;18.20;11.20
65556;PMS3003;52200;53.490;14.376;2022-11-11T16:13:39;22.20;16.60;10.00
65556;PMS3003;52200;53.490;14.376;2022-11-11T16:16:13;23.00;17.00;11.00
65556;PMS3003;52200;53.490;14.376;2022-11-11T16:21:33;21.80;17.60;11.40
65556;PMS3003;52200;53.490;14.376;2022-11-11T16:24:06;23.20;19.00;12.80
65556;PMS3003;52200;53.490;14.376;2022-11-11T16:26:48;24.60;18.60;10.60
65556;PMS3003;52200;53.490;14.376;2022-11-11T16:29:14;21.40;17.80;11.00
65556;PMS3003;52200;53.490;14.376;2022-11-11T16:31:41;30.60;22.80;12.00
65556;PMS3003;52200;53.490;14.376;2022-11-11T16:39:25;39.00;28.40;16.60
65556;PMS3003;52200;53.490;14.376;2022-11-11T16:41:52;46.20;35.60;19.00
65556;PMS3003;52200;53.490;14.376;2022-11-11T16:44:28;46.20;37.00;22.00
65556;PMS3003;52200;53.490;14.376;2022-11-11T16:46:56;47.60;36.40;22.00
65556;PMS3003;52200;53.490;14.376;2022-11-11T16:52:17;56.00;39.80;23.00
65556;PMS3003;52200;53.490;14.376;2022-11-11T16:54:53;53.40;40.20;23.80